Time;durP1;ratioP1;P1;durP2;ratioP2;P2;SDS_P1;SDS_P2;PMS_P1;PMS_P2;Temp;Humidity;BMP_temperature;BMP_pressure;BME280_temperature;BME280_humidity;BME280_pressure;Samples;Min_cycle;Max_cycle;Signal;HPM_P1;HPM_P2
2022/01/17 00:00:36;;;;;;;16.40;10.43;;;;;;;14.70;27.49;98546.30;1723396;83;20912;-63
2022/01/17 00:03:03;;;;;;;13.00;9.60;;;;;;;14.72;27.49;98542.91;1696559;84;20999;-62
2022/01/17 00:05:30;;;;;;;14.68;9.83;;;;;;;14.82;27.47;98539.22;1704842;83;21168;-63
2022/01/17 00:07:57;;;;;;;15.72;10.23;;;;;;;14.79;27.49;98536.15;1713441;83;20876;-62
2022/01/17 00:10:25;;;;;;;19.30;10.25;;;;;;;14.91;27.42;98532.25;1703427;84;21448;-62
2022/01/17 00:12:54;;;;;;;13.20;9.75;;;;;;;14.88;27.50;98527.33;1698140;84;20922;-62
2022/01/17 00:15:30;;;;;;;15.83;10.53;;;;;;;14.92;27.53;98521.81;1716810;83;21096;-62
2022/01/17 00:18:24;;;;;;;19.73;11.70;;;;;;;14.95;27.47;98523.55;1706335;84;21527;-62
2022/01/17 00:20:26;;;;;;;26.80;12.43;;;;;;;14.96;27.53;98517.16;1690539;84;20934;-62
2022/01/17 00:22:53;;;;;;;16.40;10.72;;;;;;;14.93;27.56;98507.40;1698690;83;21542;-62
2022/01/17 00:25:20;;;;;;;19.52;11.35;;;;;;;14.91;27.63;98510.83;1705525;83;20994;-62
2022/01/17 00:27:47;;;;;;;22.13;12.03;;;;;;;14.89;27.69;98511.02;1721284;83;20907;-62
2022/01/17 00:30:14;;;;;;;17.70;11.10;;;;;;;14.89;27.75;98501.66;1716470;83;21142;-63
2022/01/17 00:32:40;;;;;;;18.52;11.70;;;;;;;14.89;27.84;98497.64;1718522;83;20986;-62
2022/01/17 00:35:08;;;;;;;19.10;11.80;;;;;;;14.94;27.83;98479.05;1716005;83;20954;-62
2022/01/17 00:37:35;;;;;;;16.52;11.73;;;;;;;14.94;27.84;98479.59;1702659;84;20883;-62
2022/01/17 00:40:01;;;;;;;19.87;12.35;;;;;;;14.81;28.06;98477.33;1701760;84;21653;-62
2022/01/17 00:42:28;;;;;;;16.17;11.50;;;;;;;14.82;28.11;98470.94;1698912;84;21127;-62
2022/01/17 00:44:54;;;;;;;18.27;12.13;;;;;;;14.88;28.13;98469.76;1702953;84;20875;-63
2022/01/17 00:47:20;;;;;;;18.05;11.68;;;;;;;14.90;28.21;98460.97;1704406;84;21525;-61
2022/01/17 00:49:47;;;;;;;20.75;12.47;;;;;;;14.93;28.26;98447.97;1702447;82;20954;-61
2022/01/17 00:52:13;;;;;;;17.15;11.48;;;;;;;14.96;28.24;98446.70;1692925;84;20899;-62
2022/01/17 00:54:39;;;;;;;16.27;11.80;;;;;;;14.96;28.30;98448.05;1698703;84;21992;-61
2022/01/17 00:57:06;;;;;;;18.85;12.13;;;;;;;15.02;28.92;98447.13;1696292;82;20989;-62
2022/01/17 00:59:32;;;;;;;18.85;12.33;;;;;;;14.99;28.66;98435.00;1725889;81;20929;-61
2022/01/17 01:01:59;;;;;;;18.52;11.88;;;;;;;15.04;29.81;98433.84;1735670;82;21003;-63
2022/01/17 01:04:25;;;;;;;20.30;13.15;;;;;;;14.99;30.22;98430.98;1732557;82;20897;-62
2022/01/17 01:06:52;;;;;;;18.55;12.43;;;;;;;14.91;29.70;98430.48;1734849;82;21160;-62
2022/01/17 01:09:18;;;;;;;19.48;12.35;;;;;;;14.85;29.50;98416.13;1728604;81;20925;-63
2022/01/17 01:11:45;;;;;;;19.62;12.80;;;;;;;14.78;30.27;98418.86;1726537;82;21367;-63
2022/01/17 01:14:12;;;;;;;20.27;11.93;;;;;;;14.70;30.73;98416.48;1737570;82;20981;-62
2022/01/17 01:16:38;;;;;;;17.15;12.25;;;;;;;14.69;30.40;98402.81;1736821;82;20988;-63
2022/01/17 01:19:19;;;;;;;22.10;12.93;;;;;;;14.72;30.32;98401.55;1728404;81;21996;-61
2022/01/17 01:29:55;;;;;;;21.70;13.40;;;;;;;14.64;31.39;98416.05;1726604;81;21049;-61
2022/01/17 01:32:22;;;;;;;17.25;12.98;;;;;;;14.59;31.53;98415.89;1733286;81;21353;-62
2022/01/17 01:34:50;;;;;;;23.12;14.78;;;;;;;14.27;32.96;98418.31;1695177;84;20918;-62
2022/01/17 01:37:14;;;;;;;22.32;13.98;;;;;;;14.21;49.20;98416.50;1692973;84;21002;-62
2022/01/17 01:39:41;;;;;;;21.12;14.55;;;;;;;14.38;42.28;98418.98;1728687;82;20997;-62
2022/01/17 01:42:17;;;;;;;21.73;14.45;;;;;;;14.46;43.82;98409.33;1733380;81;20968;-62
2022/01/17 01:44:38;;;;;;;19.40;14.53;;;;;;;14.42;87.87;98416.66;1694613;83;21184;-62
2022/01/17 01:47:05;;;;;;;24.12;15.28;;;;;;;14.75;60.14;98403.78;1727028;81;21020;-63
2022/01/17 01:49:31;;;;;;;19.98;15.08;;;;;;;14.64;54.33;98394.63;1717344;82;21451;-62
2022/01/17 01:51:58;;;;;;;24.60;16.40;;;;;;;14.63;47.62;98390.31;1726797;81;20887;-65
2022/01/17 01:54:24;;;;;;;21.60;14.35;;;;;;;14.65;50.75;98383.41;1729707;82;20882;-64
2022/01/17 01:56:50;;;;;;;23.55;15.48;;;;;;;14.52;53.44;98384.89;1721531;81;23331;-62
2022/01/17 01:59:21;;;;;;;23.38;15.53;;;;;;;14.53;45.99;98374.46;1680601;83;20954;-64
2022/01/17 02:01:47;;;;;;;23.67;15.10;;;;;;;14.45;45.18;98371.56;1746082;82;21464;-61
2022/01/17 02:04:15;;;;;;;22.93;15.80;;;;;;;14.49;44.61;98370.61;1721563;81;20925;-61
2022/01/17 02:06:43;;;;;;;22.73;15.70;;;;;;;14.43;44.40;98369.63;1713204;83;20932;-62
2022/01/17 02:09:09;;;;;;;25.43;15.45;;;;;;;14.43;44.06;98358.93;1685380;83;21164;-62
2022/01/17 02:11:37;;;;;;;26.70;17.02;;;;;;;14.42;43.69;98361.81;1744767;81;20931;-62
2022/01/17 02:14:03;;;;;;;28.38;16.60;;;;;;;14.35;43.34;98351.70;1720216;81;20968;-62
2022/01/17 02:16:30;;;;;;;26.80;16.57;;;;;;;14.34;43.31;98326.01;1729318;81;20996;-62
2022/01/17 02:18:57;;;;;;;28.38;17.55;;;;;;;14.28;43.11;98342.39;1722369;81;21589;-63
2022/01/17 02:21:45;;;;;;;26.30;16.45;;;;;;;14.24;42.84;98325.13;1722381;81;21172;-62
2022/01/17 02:24:02;;;;;;;26.37;16.80;;;;;;;14.26;42.61;98322.25;1703078;82;20938;-62
2022/01/17 02:26:29;;;;;;;25.45;16.20;;;;;;;14.28;42.50;98312.96;1717611;83;20837;-61
2022/01/17 02:28:56;;;;;;;27.45;17.10;;;;;;;14.26;42.30;98305.66;1721616;81;20889;-62
2022/01/17 02:31:23;;;;;;;27.77;17.85;;;;;;;14.36;42.26;98315.89;1743046;82;20939;-62
2022/01/17 02:33:51;;;;;;;25.25;16.52;;;;;;;14.44;41.41;98311.08;1720392;82;21147;-63
2022/01/17 02:36:21;;;;;;;25.75;17.98;;;;;;;14.66;40.92;98295.36;1735968;81;21641;-64
2022/01/17 02:38:48;;;;;;;24.98;16.25;;;;;;;14.71;40.83;98304.36;1734855;82;20913;-63
2022/01/17 02:41:15;;;;;;;25.68;17.00;;;;;;;14.77;41.00;98298.63;1730701;82;21464;-61
2022/01/17 02:43:42;;;;;;;24.30;16.15;;;;;;;14.78;40.73;98298.39;1737005;82;20943;-62
2022/01/17 02:48:38;;;;;;;29.18;18.17;;;;;;;14.45;40.70;98277.91;1743518;82;20926;-62
2022/01/17 02:51:08;;;;;;;29.50;17.17;;;;;;;14.38;40.82;98269.66;1736580;82;33460;-62
2022/01/17 02:53:34;;;;;;;23.57;16.07;;;;;;;14.34;40.98;98249.22;1713584;83;20924;-63
2022/01/17 02:56:06;;;;;;;29.40;18.12;;;;;;;14.30;41.06;98254.70;1681321;84;21507;-63
2022/01/17 02:58:34;;;;;;;23.98;15.63;;;;;;;14.22;40.85;98253.66;1712040;83;21158;-62
2022/01/17 03:01:04;;;;;;;29.30;18.92;;;;;;;14.20;40.44;98251.73;1718087;81;20888;-62
2022/01/17 03:03:31;;;;;;;26.73;16.87;;;;;;;14.23;40.97;98253.42;1728322;81;20960;-61
2022/01/17 03:05:58;;;;;;;25.70;17.65;;;;;;;14.26;41.12;98245.47;1692997;84;21449;-62
2022/01/17 03:08:27;;;;;;;28.73;17.70;;;;;;;14.28;41.13;98236.72;1718645;82;20857;-62
2022/01/17 03:10:54;;;;;;;24.07;16.30;;;;;;;14.35;41.03;98236.14;1719716;81;21145;-62
2022/01/17 03:13:31;;;;;;;30.65;18.15;;;;;;;14.34;40.93;98238.52;1721314;83;21465;-62
2022/01/17 03:15:58;;;;;;;21.93;16.85;;;;;;;14.38;40.52;98236.22;1713927;81;21068;-62
2022/01/17 03:18:31;;;;;;;22.82;16.55;;;;;;;14.36;40.17;98240.47;1735803;82;20911;-61
2022/01/17 03:20:58;;;;;;;25.95;17.80;;;;;;;14.41;40.36;98247.81;1720626;82;20895;-62
2022/01/17 03:23:25;;;;;;;32.48;18.10;;;;;;;14.43;40.45;98250.56;1729352;82;21142;-62
2022/01/17 03:25:52;;;;;;;23.38;17.75;;;;;;;14.50;42.37;98239.25;1714771;81;20924;-62
2022/01/17 03:28:18;;;;;;;25.10;17.52;;;;;;;14.75;42.31;98245.84;1717139;83;20908;-62
2022/01/17 03:30:45;;;;;;;27.05;19.75;;;;;;;14.74;40.78;98236.16;1717532;81;21015;-63
2022/01/17 03:33:13;;;;;;;27.62;18.98;;;;;;;14.72;40.39;98239.59;1735876;81;20967;-63
2022/01/17 03:35:40;;;;;;;27.90;18.87;;;;;;;14.73;40.16;98223.30;1724675;82;21278;-62
2022/01/17 03:38:10;;;;;;;28.38;18.98;;;;;;;14.77;40.08;98227.17;1726477;82;20929;-61
2022/01/17 03:40:37;;;;;;;31.85;18.25;;;;;;;14.75;39.90;98219.89;1719875;81;20837;-62
2022/01/17 03:43:04;;;;;;;29.05;18.25;;;;;;;14.65;39.96;98220.93;1723871;83;20968;-62
2022/01/17 03:45:32;;;;;;;26.87;17.50;;;;;;;14.68;39.78;98210.30;1720825;81;20936;-62
2022/01/17 03:47:58;;;;;;;23.98;17.42;;;;;;;14.68;39.61;98215.64;1713374;81;21157;-62
2022/01/17 03:50:25;;;;;;;25.85;18.10;;;;;;;14.57;39.54;98221.24;1702611;83;20899;-62
2022/01/17 03:52:52;;;;;;;26.57;18.85;;;;;;;14.39;39.77;98210.56;1686749;84;21524;-62
2022/01/17 03:55:20;;;;;;;25.97;17.37;;;;;;;14.39;39.72;98193.72;1730580;82;20961;-62
2022/01/17 03:57:47;;;;;;;21.87;16.50;;;;;;;14.32;39.73;98205.83;1718142;83;20983;-62
2022/01/17 04:00:20;;;;;;;23.85;16.52;;;;;;;14.37;39.68;98215.84;1699590;83;21130;-61
2022/01/17 04:02:47;;;;;;;27.15;16.27;;;;;;;14.44;39.67;98212.08;1731599;82;20869;-62
2022/01/17 04:05:13;;;;;;;21.62;16.42;;;;;;;14.56;39.39;98200.89;1734149;81;20976;-62
2022/01/17 04:07:39;;;;;;;24.72;16.45;;;;;;;14.53;39.14;98198.66;1735183;81;21095;-62
2022/01/17 04:10:07;;;;;;;20.85;15.78;;;;;;;14.55;38.75;98199.25;1732523;81;20898;-63
2022/01/17 04:12:34;;;;;;;22.07;16.32;;;;;;;14.53;38.80;98192.48;1700792;83;21143;-63
2022/01/17 04:15:01;;;;;;;22.87;16.93;;;;;;;14.54;38.63;98194.14;1735150;81;21008;-63
2022/01/17 04:17:29;;;;;;;21.05;16.55;;;;;;;14.52;38.45;98189.53;1723054;81;20876;-62
2022/01/17 04:20:06;;;;;;;21.70;15.75;;;;;;;14.48;38.22;98189.16;1693799;82;20982;-63
2022/01/17 04:22:38;;;;;;;24.75;16.17;;;;;;;14.45;37.75;98185.59;1715482;82;20923;-62
2022/01/17 04:25:05;;;;;;;25.75;16.42;;;;;;;14.45;37.40;98179.42;1699523;83;21100;-62
2022/01/17 04:27:33;;;;;;;20.72;14.85;;;;;;;14.40;37.04;98177.43;1728297;82;20920;-62
2022/01/17 04:30:00;;;;;;;22.45;15.95;;;;;;;14.40;36.90;98164.05;1727263;81;20983;-62
2022/01/17 04:32:26;;;;;;;21.10;15.53;;;;;;;14.38;36.81;98162.13;1726221;82;21408;-62
2022/01/17 04:34:53;;;;;;;22.77;15.78;;;;;;;14.40;37.70;98148.00;1729279;81;20955;-62
2022/01/17 04:37:19;;;;;;;21.82;15.43;;;;;;;14.33;37.97;98150.47;1699509;83;21213;-62
2022/01/17 04:39:45;;;;;;;24.37;16.45;;;;;;;14.35;38.59;98149.20;1733806;82;20897;-62
2022/01/17 04:42:13;;;;;;;19.42;15.18;;;;;;;14.35;39.79;98148.37;1733937;81;20974;-62
2022/01/17 04:47:25;;;;;;;21.75;14.95;;;;;;;14.38;38.45;98142.07;1695526;82;20979;-64
2022/01/17 04:49:51;;;;;;;20.10;15.10;;;;;;;14.29;37.74;98139.36;1723684;81;21100;-63
2022/01/17 04:52:18;;;;;;;19.07;15.15;;;;;;;14.22;37.48;98123.93;1707507;82;21421;-63
2022/01/17 04:54:51;;;;;;;18.80;14.75;;;;;;;14.24;37.27;98129.86;1731781;81;20972;-64
2022/01/17 04:57:13;;;;;;;20.57;14.80;;;;;;;14.26;37.15;98123.77;1730938;82;21065;-63
2022/01/17 04:59:40;;;;;;;19.85;15.18;;;;;;;14.28;36.99;98116.87;1721921;81;21069;-61
2022/01/17 05:02:06;;;;;;;19.12;14.80;;;;;;;14.27;36.90;98109.36;1719271;82;21152;-63
2022/01/17 05:04:33;;;;;;;22.10;15.23;;;;;;;14.23;36.93;98113.54;1758755;81;20909;-62
2022/01/17 05:06:59;;;;;;;19.73;15.38;;;;;;;14.34;36.76;98099.95;1709293;83;20903;-64
2022/01/17 05:09:25;;;;;;;19.75;14.60;;;;;;;14.35;36.69;98080.16;1755785;81;21053;-63
2022/01/17 05:11:52;;;;;;;18.60;14.93;;;;;;;14.38;36.60;98085.88;1759581;81;20994;-63
2022/01/17 05:14:19;;;;;;;18.15;14.30;;;;;;;14.39;36.59;98080.02;1753798;81;21897;-63
2022/01/17 05:16:50;;;;;;;16.55;14.30;;;;;;;14.34;36.66;98070.52;1756222;81;20937;-62
2022/01/17 05:21:58;;;;;;;22.02;15.85;;;;;;;14.41;36.54;98069.38;1750862;81;20914;-63
2022/01/17 05:24:25;;;;;;;22.70;15.95;;;;;;;14.36;36.60;98083.14;1750460;81;21393;-62
2022/01/17 05:26:51;;;;;;;21.40;15.75;;;;;;;14.45;36.50;98085.77;1754082;81;21078;-62
2022/01/17 05:29:17;;;;;;;18.67;15.15;;;;;;;14.54;36.45;98071.86;1736465;81;20918;-62
2022/01/17 05:31:44;;;;;;;19.55;14.60;;;;;;;14.68;36.29;98068.44;1759844;81;21013;-63
2022/01/17 05:34:10;;;;;;;23.02;15.78;;;;;;;14.73;36.16;98068.59;1742858;81;20941;-63
2022/01/17 05:36:36;;;;;;;20.32;15.25;;;;;;;14.74;36.02;98049.61;1756565;81;20855;-64
2022/01/17 05:39:03;;;;;;;20.40;16.02;;;;;;;14.71;36.03;98041.21;1738994;81;21786;-64
2022/01/17 05:41:30;;;;;;;22.60;15.28;;;;;;;14.71;36.02;98048.72;1757412;81;20966;-64
2022/01/17 05:43:57;;;;;;;20.32;14.70;;;;;;;14.63;36.12;98033.00;1756265;81;20898;-63
2022/01/17 05:46:24;;;;;;;19.52;15.32;;;;;;;14.60;36.19;98029.98;1758173;81;21090;-64
2022/01/17 05:48:51;;;;;;;19.32;14.75;;;;;;;14.62;36.18;98032.73;1742990;81;20990;-62
2022/01/17 05:51:18;;;;;;;21.77;15.90;;;;;;;14.65;36.16;98020.20;1753320;81;21122;-62
2022/01/17 05:53:44;;;;;;;17.60;14.65;;;;;;;14.60;36.47;98015.27;1750648;81;21073;-61
2022/01/17 05:56:10;;;;;;;19.12;14.23;;;;;;;14.65;36.61;98008.70;1762020;81;20937;-62
2022/01/17 05:58:36;;;;;;;21.05;15.00;;;;;;;14.52;36.86;98011.59;1753930;81;20898;-62
2022/01/17 06:01:03;;;;;;;23.00;15.35;;;;;;;14.49;37.10;98008.03;1730123;81;21553;-61
2022/01/17 06:03:29;;;;;;;20.37;15.75;;;;;;;14.60;37.02;97999.21;1730888;82;21130;-62
2022/01/17 06:05:55;;;;;;;21.27;15.30;;;;;;;14.66;37.00;97991.06;1715821;83;20912;-59
2022/01/17 06:08:21;;;;;;;19.30;14.60;;;;;;;14.71;36.91;97966.27;1698145;84;21006;-62
2022/01/17 06:10:48;;;;;;;20.00;15.40;;;;;;;14.77;36.87;97984.91;1740311;82;20982;-62
2022/01/17 06:13:21;;;;;;;19.92;15.80;;;;;;;14.88;36.58;97963.20;1725094;82;20918;-63
2022/01/17 06:15:49;;;;;;;19.73;16.45;;;;;;;14.75;36.59;97956.22;1733061;82;20915;-62
2022/01/17 06:18:15;;;;;;;20.00;14.58;;;;;;;14.78;36.46;97949.03;1686757;83;21517;-62
2022/01/17 06:20:42;;;;;;;19.25;15.28;;;;;;;14.83;36.36;97961.75;1704171;81;21066;-62
2022/01/17 06:23:08;;;;;;;17.95;13.72;;;;;;;14.82;36.28;97951.55;1715195;81;21515;-62
2022/01/17 06:25:35;;;;;;;21.40;15.83;;;;;;;14.77;36.33;97927.87;1700641;81;21006;-61
2022/01/17 06:28:01;;;;;;;16.85;14.50;;;;;;;14.84;36.27;97927.21;1698488;81;21148;-63
2022/01/17 06:30:27;;;;;;;18.23;15.15;;;;;;;14.94;36.50;97918.61;1701993;81;21002;-63
2022/01/17 06:32:54;;;;;;;17.70;15.13;;;;;;;14.97;36.32;97905.55;1721896;82;20939;-64
2022/01/17 06:35:20;;;;;;;19.45;16.07;;;;;;;14.90;36.42;97920.93;1701884;82;21058;-63
2022/01/17 06:37:48;;;;;;;19.40;15.98;;;;;;;14.99;36.38;97906.66;1727109;82;20930;-63
2022/01/17 06:40:15;;;;;;;17.50;14.55;;;;;;;15.05;36.42;97900.34;1704613;81;21301;-62
2022/01/17 06:42:42;;;;;;;22.52;16.10;;;;;;;15.10;36.43;97893.23;1679105;83;21005;-62
2022/01/17 06:45:10;;;;;;;18.52;14.70;;;;;;;15.30;36.06;97886.14;1701255;81;21011;-62
2022/01/17 06:47:37;;;;;;;16.77;14.98;;;;;;;15.25;36.15;97883.36;1710985;81;21000;-63
2022/01/17 06:50:04;;;;;;;18.75;13.80;;;;;;;15.37;36.49;97860.02;1672697;83;21018;-63
2022/01/17 06:52:32;;;;;;;17.45;13.55;;;;;;;15.34;36.20;97851.11;1714220;81;21463;-62
2022/01/17 06:54:58;;;;;;;16.35;13.78;;;;;;;15.40;35.87;97842.13;1718439;81;20976;-63
2022/01/17 06:57:25;;;;;;;20.12;15.70;;;;;;;15.43;35.72;97843.77;1706053;81;20901;-63
2022/01/17 06:59:51;;;;;;;20.82;16.40;;;;;;;15.42;35.76;97844.03;1676407;83;21986;-63
2022/01/17 07:02:19;;;;;;;21.15;16.95;;;;;;;15.50;36.22;97814.19;1709396;81;21047;-62
2022/01/17 07:04:45;;;;;;;15.93;14.05;;;;;;;15.43;36.51;97825.02;1720587;81;21163;-62
2022/01/17 07:07:12;;;;;;;16.90;12.95;;;;;;;15.51;36.29;97847.98;1682574;83;21013;-62
2022/01/17 07:09:39;;;;;;;15.13;12.40;;;;;;;15.60;35.91;97857.77;1717288;81;20969;-63
2022/01/17 07:12:08;;;;;;;14.58;11.70;;;;;;;15.61;35.58;97866.11;1702227;83;21775;-62
2022/01/17 07:14:41;;;;;;;13.68;11.93;;;;;;;15.62;35.39;97895.34;1721399;82;21049;-62
2022/01/17 07:17:04;;;;;;;13.20;11.83;;;;;;;15.43;35.50;97918.80;1680209;83;21063;-63
2022/01/17 07:19:30;;;;;;;13.80;11.22;;;;;;;15.49;35.48;97896.97;1715626;81;20911;-62
2022/01/17 07:21:57;;;;;;;12.70;11.40;;;;;;;15.46;35.32;97857.80;1701514;81;20932;-63
2022/01/17 07:24:23;;;;;;;12.10;10.82;;;;;;;15.44;35.35;97852.11;1682921;83;21086;-63
2022/01/17 07:26:49;;;;;;;12.85;10.78;;;;;;;15.50;35.26;97824.09;1725536;83;20940;-63
2022/01/17 07:29:16;;;;;;;14.00;11.18;;;;;;;15.51;35.22;97831.09;1721132;83;21160;-62
2022/01/17 07:31:42;;;;;;;12.00;10.78;;;;;;;15.57;35.11;97820.20;1697032;83;21504;-64
2022/01/17 07:34:08;;;;;;;12.03;10.78;;;;;;;15.64;35.35;97823.56;1713318;82;21001;-63
2022/01/17 07:36:35;;;;;;;12.30;10.48;;;;;;;15.68;35.09;97830.05;1740546;82;20895;-64
2022/01/17 07:39:01;;;;;;;13.90;10.43;;;;;;;15.67;35.00;97819.59;1713912;83;21796;-63
2022/01/17 07:41:28;;;;;;;13.25;11.33;;;;;;;15.63;35.45;97789.77;1692946;84;21168;-62
2022/01/17 07:43:54;;;;;;;11.93;10.50;;;;;;;15.62;35.69;97776.06;1719657;83;20913;-63
2022/01/17 07:46:31;;;;;;;11.65;10.40;;;;;;;15.85;42.25;97764.39;1713465;82;20980;-63
2022/01/17 07:49:10;;;;;;;12.70;11.05;;;;;;;15.98;37.95;97747.41;1681586;84;21082;-63
2022/01/17 07:51:40;;;;;;;12.73;10.35;;;;;;;15.93;37.44;97737.95;1719948;83;21048;-63
2022/01/17 07:54:08;;;;;;;10.85;9.75;;;;;;;15.77;37.59;97715.20;1721428;83;21150;-62
2022/01/17 07:56:36;;;;;;;11.48;10.03;;;;;;;15.89;39.41;97705.17;1717529;83;20924;-64
2022/01/17 07:59:04;;;;;;;12.58;10.60;;;;;;;15.82;36.58;97695.16;1719011;81;20981;-66
2022/01/17 08:01:30;;;;;;;13.95;10.65;;;;;;;15.95;35.80;97680.06;1727019;81;21030;-66
2022/01/17 08:03:57;;;;;;;12.75;9.88;;;;;;;15.85;35.57;97669.20;1691295;84;20943;-67
2022/01/17 08:06:23;;;;;;;11.90;10.40;;;;;;;15.75;35.44;97670.38;1714778;83;21313;-67
2022/01/17 08:08:50;;;;;;;10.82;9.48;;;;;;;15.74;35.32;97685.67;1682453;84;21049;-68
2022/01/17 08:11:17;;;;;;;11.70;9.00;;;;;;;15.69;35.25;97688.80;1719596;83;20939;-65
2022/01/17 08:13:44;;;;;;;10.20;9.20;;;;;;;15.77;35.06;97671.75;1723694;81;21563;-68
2022/01/17 08:16:10;;;;;;;10.53;9.43;;;;;;;15.79;34.94;97665.63;1710274;81;21079;-63
2022/01/17 08:18:37;;;;;;;12.30;10.68;;;;;;;15.71;35.02;97692.86;1721694;81;21851;-62
2022/01/17 08:21:04;;;;;;;10.08;8.58;;;;;;;15.73;34.95;97659.91;1722356;81;21009;-65
2022/01/17 08:23:30;;;;;;;10.80;8.38;;;;;;;15.71;34.92;97665.23;1718832;81;20960;-61
2022/01/17 08:25:58;;;;;;;11.15;9.20;;;;;;;15.66;34.93;97674.02;1716923;83;20849;-64
2022/01/17 08:28:25;;;;;;;9.25;8.15;;;;;;;15.64;34.96;97609.66;1711878;81;20928;-62
2022/01/17 08:30:51;;;;;;;11.53;9.10;;;;;;;15.61;34.95;97616.84;1723064;81;21859;-62
2022/01/17 08:33:17;;;;;;;11.22;9.25;;;;;;;15.64;34.89;97626.56;1745557;82;20976;-62
2022/01/17 08:35:44;;;;;;;12.45;10.32;;;;;;;15.74;35.81;97633.39;1719876;83;20956;-62
2022/01/17 08:38:11;;;;;;;9.98;8.60;;;;;;;15.79;35.14;97637.48;1685396;84;21044;-61
2022/01/17 08:40:37;;;;;;;11.70;8.85;;;;;;;15.83;35.12;97617.67;1722298;83;21604;-64
2022/01/17 08:43:04;;;;;;;11.25;8.20;;;;;;;15.87;35.03;97592.81;1713597;82;21168;-62
2022/01/17 08:45:31;;;;;;;9.40;7.90;;;;;;;15.90;36.26;97626.37;1714612;83;21007;-62
2022/01/17 08:47:57;;;;;;;9.05;7.90;;;;;;;15.95;36.95;97617.05;1713779;81;20945;-62
2022/01/17 08:50:24;;;;;;;9.33;8.10;;;;;;;15.98;37.21;97595.88;1724739;83;20977;-61
2022/01/17 08:52:50;;;;;;;8.75;7.85;;;;;;;16.19;46.03;97604.20;1712557;83;21034;-63
2022/01/17 08:55:17;;;;;;;8.65;7.25;;;;;;;16.48;45.78;97559.41;1722411;83;21213;-61
2022/01/17 08:57:45;;;;;;;9.43;7.92;;;;;;;16.51;42.41;97562.13;1708737;83;20972;-62
2022/01/17 09:00:16;;;;;;;9.13;7.95;;;;;;;16.50;40.99;97522.95;1724671;83;20976;-64
2022/01/17 09:02:42;;;;;;;9.00;8.10;;;;;;;16.45;41.29;97537.66;1726989;81;20961;-65
2022/01/17 09:05:10;;;;;;;9.58;7.67;;;;;;;16.33;40.82;97535.12;1720088;82;20882;-66
2022/01/17 09:07:37;;;;;;;9.63;8.38;;;;;;;16.35;40.66;97536.20;1709747;83;21149;-65
2022/01/17 09:10:04;;;;;;;10.03;9.00;;;;;;;16.32;40.43;97528.67;1721906;81;21063;-63
2022/01/17 09:12:31;;;;;;;10.95;8.30;;;;;;;16.20;40.42;97533.36;1712307;81;21104;-65
2022/01/17 09:14:59;;;;;;;12.60;9.10;;;;;;;16.06;40.60;97516.33;1723656;83;21040;-62
2022/01/17 09:17:25;;;;;;;11.10;8.90;;;;;;;16.02;40.64;97529.16;1720850;82;21423;-63
2022/01/17 09:19:52;;;;;;;12.07;8.93;;;;;;;16.01;40.63;97528.34;1722510;83;21155;-63
2022/01/17 09:22:18;;;;;;;10.38;9.25;;;;;;;15.94;67.21;97515.67;1716211;81;20921;-65
2022/01/17 09:24:44;;;;;;;10.95;8.88;;;;;;;16.27;50.81;97509.84;1712389;83;21095;-64
2022/01/17 09:27:12;;;;;;;11.45;9.13;;;;;;;16.18;42.48;97504.12;1711794;83;20971;-63
2022/01/17 09:29:38;;;;;;;10.72;8.85;;;;;;;16.11;41.82;97487.95;1719139;83;21098;-62
2022/01/17 09:32:07;;;;;;;7.65;6.85;;;;;;;16.03;41.48;97488.66;1721560;81;21103;-62
2022/01/17 09:34:35;;;;;;;10.25;8.00;;;;;;;15.95;41.16;97478.94;1722594;83;20965;-63
2022/01/17 09:37:01;;;;;;;9.98;8.70;;;;;;;16.30;47.83;97491.35;1716697;83;21091;-64
2022/01/17 09:39:28;;;;;;;8.15;7.00;;;;;;;16.40;48.16;97465.95;1706202;81;20981;-62
2022/01/17 09:41:54;;;;;;;8.33;7.25;;;;;;;16.49;47.11;97462.27;1708699;81;20971;-72
2022/01/17 09:44:20;;;;;;;8.43;7.37;;;;;;;16.42;43.65;97446.92;1708245;81;21559;-73
2022/01/17 09:46:52;;;;;;;8.13;7.08;;;;;;;16.26;42.86;97437.12;1710133;81;21532;-65
2022/01/17 09:49:34;;;;;;;8.93;7.70;;;;;;;16.30;42.44;97446.27;1707236;83;21043;-64
2022/01/17 09:54:28;;;;;;;8.53;7.65;;;;;;;16.16;41.90;97424.44;1713456;81;21368;-65
2022/01/17 09:56:56;;;;;;;7.83;7.03;;;;;;;16.11;41.60;97418.22;1714086;81;21143;-64
2022/01/17 09:59:23;;;;;;;7.53;6.78;;;;;;;16.20;41.25;97416.14;1707666;81;21721;-64
2022/01/17 10:01:51;;;;;;;9.25;7.15;;;;;;;16.08;41.00;97405.31;1712679;81;21510;-66
2022/01/17 10:04:18;;;;;;;8.50;6.87;;;;;;;16.20;41.16;97408.63;1728017;81;21035;-64
2022/01/17 10:06:56;;;;;;;7.67;6.85;;;;;;;16.37;41.17;97395.91;1723154;83;20981;-67
2022/01/17 10:09:26;;;;;;;7.67;6.87;;;;;;;16.52;40.87;97387.46;1721144;83;21810;-66
2022/01/17 10:12:10;;;;;;;8.35;6.83;;;;;;;16.61;40.73;97376.50;1746545;82;20985;-64
2022/01/17 10:14:45;;;;;;;7.17;6.47;;;;;;;16.63;40.63;97360.16;1724357;83;20971;-65
2022/01/17 10:17:17;;;;;;;6.80;6.10;;;;;;;16.52;40.31;97349.04;1706277;81;21556;-65
2022/01/17 10:19:45;;;;;;;6.75;6.05;;;;;;;16.39;40.31;97353.52;1712138;81;21000;-65
2022/01/17 10:22:23;;;;;;;6.60;5.95;;;;;;;16.38;40.23;97341.16;1712208;81;21163;-65
2022/01/17 10:30:27;;;;;;;6.58;5.83;;;;;;;16.34;39.83;97319.95;1718249;81;21135;-65
2022/01/17 10:35:21;;;;;;;6.50;5.20;;;;;;;16.27;39.31;97316.69;1708307;81;21170;-65
2022/01/17 10:38:11;;;;;;;5.75;5.25;;;;;;;16.35;39.12;97294.71;1701966;83;21118;-65
2022/01/17 10:40:56;;;;;;;5.28;4.75;;;;;;;16.35;38.91;97293.37;1716032;83;21019;-63
2022/01/17 10:43:26;;;;;;;7.15;6.35;;;;;;;16.25;38.86;97309.41;1708463;81;21532;-63
2022/01/17 10:45:55;;;;;;;7.25;6.42;;;;;;;16.29;39.68;97281.02;1713215;81;21044;-67
2022/01/17 10:48:25;;;;;;;6.70;6.00;;;;;;;16.38;39.56;97289.64;1679529;83;21165;-62
2022/01/17 10:50:51;;;;;;;7.12;5.97;;;;;;;16.34;39.81;97275.67;1676453;83;21055;-67
2022/01/17 10:53:18;;;;;;;7.42;6.72;;;;;;;16.44;39.92;97263.65;1708594;81;20967;-62
2022/01/17 10:55:50;;;;;;;7.92;6.47;;;;;;;16.53;39.94;97268.81;1712525;83;21934;-67
2022/01/17 10:58:25;;;;;;;5.60;4.78;;;;;;;16.64;39.63;97263.77;1707080;83;20943;-66
2022/01/17 11:00:58;;;;;;;6.75;6.05;;;;;;;16.66;39.40;97248.20;1712287;81;21142;-62
2022/01/17 11:03:28;;;;;;;6.08;5.47;;;;;;;16.58;40.32;97223.23;1734024;82;21650;-66
2022/01/17 11:05:55;;;;;;;5.92;5.42;;;;;;;16.51;39.81;97221.27;1715955;83;21030;-64
2022/01/17 11:08:25;;;;;;;6.33;5.72;;;;;;;16.46;39.64;97209.18;1708843;81;20996;-65
2022/01/17 11:10:57;;;;;;;5.60;5.10;;;;;;;16.48;39.58;97195.77;1710695;81;21026;-64
2022/01/17 11:13:29;;;;;;;5.83;5.25;;;;;;;16.57;39.48;97192.08;1736067;82;21037;-63
2022/01/17 11:15:59;;;;;;;5.12;4.67;;;;;;;16.52;39.30;97192.03;1704293;82;21708;-62
2022/01/17 11:18:28;;;;;;;5.58;4.97;;;;;;;16.40;39.25;97175.36;1731693;82;21045;-67
2022/01/17 11:21:05;;;;;;;5.28;4.55;;;;;;;16.45;39.33;97182.09;1703125;83;21564;-64
2022/01/17 11:23:30;;;;;;;5.00;4.50;;;;;;;16.41;39.28;97181.80;1703010;83;26880;-66
2022/01/17 11:25:57;;;;;;;4.90;4.40;;;;;;;16.33;41.83;97173.44;1713016;83;21209;-66
2022/01/17 11:28:28;;;;;;;5.78;4.90;;;;;;;16.25;67.11;97168.56;1716453;83;21048;-66
2022/01/17 11:30:57;;;;;;;5.03;4.60;;;;;;;16.44;51.18;97161.67;1723247;81;21031;-64
2022/01/17 11:33:24;;;;;;;5.17;4.67;;;;;;;16.29;42.63;97154.39;1744801;82;21006;-64
2022/01/17 11:35:52;;;;;;;5.67;5.12;;;;;;;16.22;42.01;97148.44;1735461;82;21001;-62
2022/01/17 11:38:26;;;;;;;5.70;5.15;;;;;;;16.13;41.89;97132.59;1739099;82;21819;-63
2022/01/17 11:40:53;;;;;;;7.35;6.10;;;;;;;16.05;41.85;97141.94;1715161;83;20992;-66
2022/01/17 11:43:35;;;;;;;7.22;5.72;;;;;;;15.97;43.03;97142.96;1723756;83;20849;-64
2022/01/17 11:46:22;;;;;;;7.22;5.35;;;;;;;15.93;42.38;97137.30;1712139;81;21072;-67
2022/01/17 11:49:02;;;;;;;5.65;5.08;;;;;;;15.88;42.32;97102.42;1689807;84;20880;-65
2022/01/17 11:51:46;;;;;;;5.95;5.30;;;;;;;15.86;42.60;97115.29;1717605;83;21287;-61